Time,TemperatureF,DewpointF,PressureIn,WindDirection,WindDirectionDegrees,WindSpeedMPH,WindSpeedGustMPH,Humidity,HourlyPrecipIn,Conditions,Clouds,dailyrainin,SoftwareType,DateUTC
2013-01-24 00:03:00,11.0,11.0,30.16,NNW,329,9.0,0.0,100,0.03,,,-99.99,,2013-01-24 05:03:00,
2013-01-24 00:12:00,11.0,11.0,30.16,NNW,329,9.0,0.0,100,0.03,,,-99.99,,2013-01-24 05:12:00,
2013-01-24 00:23:00,11.0,11.0,30.17,NNW,336,9.0,0.0,100,0.03,,,-99.99,,2013-01-24 05:23:00,
2013-01-24 00:33:00,10.0,10.0,30.17,NW,315,7.0,0.0,100,0.03,,,-99.99,,2013-01-24 05:33:00,
2013-01-24 00:43:00,10.0,10.0,30.17,NW,315,7.0,0.0,100,0.03,,,-99.99,,2013-01-24 05:43:00,
2013-01-24 00:53:00,10.0,10.0,30.18,NW,322,7.0,0.0,100,0.03,,,-99.99,,2013-01-24 05:53:00,
2013-01-24 01:03:00,10.0,10.0,30.19,NW,326,7.0,0.0,100,0.03,,,-99.99,,2013-01-24 06:03:00,
2013-01-24 01:12:00,10.0,10.0,30.19,NW,326,7.0,0.0,100,0.03,,,-99.99,,2013-01-24 06:12:00,
2013-01-24 01:22:00,9.0,9.0,30.19,NW,321,4.0,0.0,100,0.03,,,-99.99,,2013-01-24 06:22:00,
2013-01-24 01:32:00,7.0,7.0,30.20,NW,323,4.0,0.0,100,0.03,,,-99.99,,2013-01-24 06:32:00,
2013-01-24 01:42:00,7.0,7.0,30.20,NW,323,4.0,0.0,100,0.03,,,-99.99,,2013-01-24 06:42:00,
2013-01-24 01:53:00,8.0,8.0,30.21,NW,322,4.0,0.0,100,0.03,,,-99.99,,2013-01-24 06:53:00,
2013-01-24 02:03:00,7.0,7.0,30.22,NW,319,0.0,0.0,100,0.03,,,-99.99,,2013-01-24 07:03:00,
2013-01-24 02:12:00,7.0,7.0,30.22,NW,319,0.0,0.0,100,0.03,,,-99.99,,2013-01-24 07:12:00,
2013-01-24 02:23:00,6.0,6.0,30.23,NW,319,0.0,0.0,100,0.03,,,-99.99,,2013-01-24 07:23:00,
2013-01-24 02:33:00,6.0,6.0,30.24,NW,319,0.0,0.0,100,0.03,,,-99.99,,2013-01-24 07:33:00,
2013-01-24 02:43:00,6.0,6.0,30.24,NW,319,0.0,0.0,100,0.03,,,-99.99,,2013-01-24 07:43:00,
2013-01-24 02:53:00,5.0,5.0,30.25,NW,319,0.0,0.0,100,0.03,,,-99.99,,2013-01-24 07:53:00,
2013-01-24 03:02:00,6.0,6.0,30.27,NW,319,0.0,0.0,100,0.03,,,-99.99,,2013-01-24 08:02:00,
2013-01-24 03:12:00,6.0,6.0,30.27,NW,319,0.0,0.0,100,0.03,,,-99.99,,2013-01-24 08:12:00,
2013-01-24 03:23:00,5.0,5.0,30.28,NW,319,0.0,0.0,100,0.03,,,-99.99,,2013-01-24 08:23:00,
2013-01-24 03:33:00,4.0,4.0,30.29,NW,319,0.0,0.0,100,0.03,,,-99.99,,2013-01-24 08:33:00,
2013-01-24 03:43:00,4.0,4.0,30.29,NW,319,0.0,0.0,100,0.03,,,-99.99,,2013-01-24 08:43:00,
2013-01-24 03:53:00,5.0,5.0,30.31,NW,319,0.0,0.0,100,0.03,,,-99.99,,2013-01-24 08:53:00,
2013-01-24 04:03:00,5.0,5.0,30.32,NW,319,0.0,0.0,100,0.03,,,-99.99,,2013-01-24 09:03:00,
2013-01-24 04:13:00,5.0,5.0,30.32,NW,319,0.0,0.0,100,0.03,,,-99.99,,2013-01-24 09:13:00,
2013-01-24 04:23:00,7.0,7.0,30.34,NW,319,0.0,0.0,100,0.03,,,-99.99,,2013-01-24 09:23:00,
2013-01-24 04:33:00,7.0,7.0,30.35,NW,325,6.0,0.0,100,0.03,,,-99.99,,2013-01-24 09:33:00,
2013-01-24 04:43:00,7.0,7.0,30.35,NW,325,6.0,0.0,100,0.03,,,-99.99,,2013-01-24 09:43:00,
2013-01-24 04:53:00,7.0,7.0,30.36,NNW,339,8.0,0.0,100,0.03,,,-99.99,,2013-01-24 09:53:00,
2013-01-24 05:03:00,8.0,8.0,30.37,North,7,8.0,0.0,100,0.03,,,-99.99,,2013-01-24 10:03:00,
2013-01-24 05:12:00,8.0,8.0,30.37,North,7,8.0,0.0,100,0.03,,,-99.99,,2013-01-24 10:12:00,
2013-01-24 05:23:00,8.0,8.0,30.38,NNE,21,8.0,0.0,100,0.03,,,-99.99,,2013-01-24 10:23:00,
2013-01-24 05:33:00,8.0,8.0,30.39,North,11,9.0,0.0,99,0.03,,,-99.99,,2013-01-24 10:33:00,
2013-01-24 05:43:00,8.0,8.0,30.39,North,11,9.0,0.0,99,0.03,,,-99.99,,2013-01-24 10:43:00,
2013-01-24 05:53:00,7.0,7.0,30.40,North,352,8.0,0.0,98,0.03,,,-99.99,,2013-01-24 10:53:00,
2013-01-24 06:03:00,7.0,7.0,30.41,NNE,32,7.0,0.0,98,0.03,,,-99.99,,2013-01-24 11:03:00,
2013-01-24 06:12:00,7.0,7.0,30.41,NNE,32,7.0,0.0,98,0.03,,,-99.99,,2013-01-24 11:12:00,
2013-01-24 06:23:00,5.0,5.0,30.42,NNE,24,6.0,0.0,98,0.03,,,-99.99,,2013-01-24 11:23:00,
2013-01-24 06:33:00,5.0,5.0,30.43,NNE,30,6.0,0.0,99,0.03,,,-99.99,,2013-01-24 11:33:00,
2013-01-24 06:43:00,5.0,5.0,30.43,NNE,30,6.0,0.0,99,0.03,,,-99.99,,2013-01-24 11:43:00,
2013-01-24 06:53:00,5.0,5.0,30.44,NNE,20,6.0,0.0,99,0.03,,,-99.99,,2013-01-24 11:53:00,
2013-01-24 07:03:00,4.0,4.0,30.45,NNE,20,6.0,0.0,99,0.03,,,-99.99,,2013-01-24 12:03:00,
2013-01-24 07:12:00,4.0,4.0,30.45,NNE,20,6.0,0.0,99,0.03,,,-99.99,,2013-01-24 12:12:00,
2013-01-24 07:23:00,3.0,3.0,30.46,NNE,20,5.0,0.0,99,0.03,,,-99.99,,2013-01-24 12:23:00,
2013-01-24 07:33:00,3.0,3.0,30.47,NNE,18,6.0,0.0,99,0.03,,,-99.99,,2013-01-24 12:33:00,
2013-01-24 07:43:00,3.0,3.0,30.47,NNE,18,6.0,0.0,99,0.03,,,-99.99,,2013-01-24 12:43:00,
2013-01-24 07:53:00,3.0,3.0,30.48,NNE,20,5.0,0.0,99,0.03,,,-99.99,,2013-01-24 12:53:00,
2013-01-24 08:03:00,2.0,2.0,30.49,NNE,20,5.0,0.0,100,0.03,,,-99.99,,2013-01-24 13:03:00,
2013-01-24 08:13:00,2.0,2.0,30.49,NNE,20,5.0,0.0,100,0.03,,,-99.99,,2013-01-24 13:13:00,
2013-01-24 08:23:00,1.0,1.0,30.49,NNE,18,0.0,0.0,99,0.03,,,-99.99,,2013-01-24 13:23:00,
2013-01-24 08:33:00,-1.0,-1.0,30.50,NNE,18,0.0,0.0,99,0.03,,,-99.99,,2013-01-24 13:33:00,
2013-01-24 08:43:00,-1.0,-1.0,30.50,NNE,18,0.0,0.0,99,0.03,,,-99.99,,2013-01-24 13:43:00,
2013-01-24 08:53:00,0.0,0.0,30.51,NNE,18,0.0,0.0,100,0.03,,,-99.99,,2013-01-24 13:53:00,
2013-01-24 09:03:00,1.0,1.0,30.51,NNE,18,0.0,0.0,100,0.03,,,-99.99,,2013-01-24 14:03:00,
2013-01-24 09:12:00,1.0,1.0,30.51,NNE,18,0.0,0.0,100,0.03,,,-99.99,,2013-01-24 14:12:00,
2013-01-24 09:23:00,2.0,2.0,30.53,NNE,18,0.0,0.0,100,0.03,,,-99.99,,2013-01-24 14:23:00,
2013-01-24 09:33:00,3.0,3.0,30.53,NNE,18,0.0,0.0,100,0.03,,,-99.99,,2013-01-24 14:33:00,
2013-01-24 09:43:00,3.0,3.0,30.53,NNE,18,0.0,0.0,100,0.03,,,-99.99,,2013-01-24 14:43:00,
2013-01-24 09:54:00,4.0,4.0,30.54,NNE,18,0.0,0.0,100,0.03,,,-99.99,,2013-01-24 14:54:00,
2013-01-24 10:04:00,5.0,5.0,30.55,NNE,18,0.0,0.0,100,0.03,,,-99.99,,2013-01-24 15:04:00,
2013-01-24 10:13:00,5.0,5.0,30.55,NNE,18,0.0,0.0,100,0.03,,,-99.99,,2013-01-24 15:13:00,
2013-01-24 10:23:00,6.0,6.0,30.56,NNE,18,0.0,0.0,100,0.03,,,-99.99,,2013-01-24 15:23:00,
2013-01-24 10:33:00,6.0,6.0,30.56,NNE,18,0.0,0.0,100,0.03,,,-99.99,,2013-01-24 15:33:00,
2013-01-24 10:43:00,6.0,6.0,30.57,NE,39,1.0,0.0,100,0.03,,,-99.99,,2013-01-24 15:43:00,
2013-01-24 10:53:00,7.0,7.0,30.58,NE,53,0.0,0.0,100,0.03,,,-99.99,,2013-01-24 15:53:00,
2013-01-24 11:03:00,8.0,8.0,30.58,NE,53,0.0,0.0,100,0.03,,,-99.99,,2013-01-24 16:03:00,
2013-01-24 11:12:00,8.0,8.0,30.58,NE,53,0.0,0.0,100,0.03,,,-99.99,,2013-01-24 16:12:00,
2013-01-24 11:23:00,9.0,9.0,30.58,NNE,30,7.0,0.0,98,0.03,,,-99.99,,2013-01-24 16:23:00,
2013-01-24 11:33:00,10.0,9.0,30.57,NNE,25,9.0,0.0,95,0.03,,,-99.99,,2013-01-24 16:33:00,
2013-01-24 11:43:00,10.0,9.0,30.57,NNE,25,9.0,0.0,95,0.03,,,-99.99,,2013-01-24 16:43:00,
2013-01-24 12:03:00,11.0,9.0,30.57,NE,53,5.0,0.0,92,0.03,,,-99.99,,2013-01-24 17:03:00,
2013-01-24 12:12:00,11.0,9.0,30.57,NE,53,5.0,0.0,92,0.03,,,-99.99,,2013-01-24 17:12:00,
2013-01-24 12:22:00,12.0,10.0,30.57,NE,35,6.0,0.0,90,0.03,,,-99.99,,2013-01-24 17:22:00,
2013-01-24 12:32:00,12.0,9.0,30.56,NNE,28,0.0,0.0,89,0.03,,,-99.99,,2013-01-24 17:32:00,
2013-01-24 12:42:00,12.0,9.0,30.56,NNE,28,0.0,0.0,89,0.03,,,-99.99,,2013-01-24 17:42:00,
2013-01-24 12:52:00,15.0,12.0,30.57,NNE,28,0.0,0.0,88,0.03,,,-99.99,,2013-01-24 17:52:00,
2013-01-24 13:03:00,15.0,12.0,30.56,NNE,28,0.0,0.0,86,0.03,,,-99.99,,2013-01-24 18:03:00,
2013-01-24 13:12:00,14.0,10.0,30.55,NW,321,5.0,0.0,83,0.03,,,-99.99,,2013-01-24 18:12:00,
2013-01-24 13:23:00,14.0,10.0,30.55,NW,321,5.0,0.0,83,0.03,,,-99.99,,2013-01-24 18:23:00,
2013-01-24 13:33:00,14.0,10.0,30.55,North,6,0.0,0.0,82,0.03,,,-99.99,,2013-01-24 18:33:00,
2013-01-24 13:42:00,14.0,10.0,30.55,North,6,0.0,0.0,82,0.03,,,-99.99,,2013-01-24 18:42:00,
2013-01-24 13:53:00,16.0,11.0,30.55,North,6,0.0,0.0,82,0.03,,,-99.99,,2013-01-24 18:53:00,
2013-01-24 14:02:00,15.0,9.0,30.55,NNW,339,6.0,0.0,76,0.03,,,-99.99,,2013-01-24 19:02:00,
2013-01-24 14:12:00,15.0,9.0,30.55,NNW,339,6.0,0.0,76,0.03,,,-99.99,,2013-01-24 19:12:00,
2013-01-24 14:22:00,16.0,10.0,30.54,NNW,339,0.0,0.0,77,0.03,,,-99.99,,2013-01-24 19:22:00,
2013-01-24 14:33:00,17.0,10.0,30.54,North,3,1.0,0.0,74,0.03,,,-99.99,,2013-01-24 19:33:00,
2013-01-24 14:42:00,17.0,10.0,30.54,North,3,1.0,0.0,74,0.03,,,-99.99,,2013-01-24 19:42:00,
2013-01-24 14:53:00,18.0,11.0,30.54,North,3,0.0,0.0,74,0.03,,,-99.99,,2013-01-24 19:53:00,
2013-01-24 15:02:00,17.0,9.0,30.53,SSW,194,6.0,0.0,71,0.03,,,-99.99,,2013-01-24 20:02:00,
2013-01-24 15:12:00,17.0,9.0,30.53,SSW,194,6.0,0.0,71,0.03,,,-99.99,,2013-01-24 20:12:00,
2013-01-24 15:22:00,16.0,8.0,30.53,SSW,211,4.0,0.0,70,0.03,,,-99.99,,2013-01-24 20:22:00,
2013-01-24 15:33:00,17.0,9.0,30.53,WSW,242,2.0,0.0,70,0.03,,,-99.99,,2013-01-24 20:33:00,
2013-01-24 15:42:00,17.0,9.0,30.53,WSW,242,2.0,0.0,70,0.03,,,-99.99,,2013-01-24 20:42:00,
2013-01-24 15:52:00,16.0,8.0,30.54,SSW,207,6.0,0.0,69,0.03,,,-99.99,,2013-01-24 20:52:00,
2013-01-24 16:03:00,16.0,7.0,30.54,SSW,211,6.0,0.0,68,0.03,,,-99.99,,2013-01-24 21:03:00,
2013-01-24 16:12:00,16.0,7.0,30.54,SSW,211,6.0,0.0,68,0.03,,,-99.99,,2013-01-24 21:12:00,
2013-01-24 16:23:00,15.0,7.0,30.54,SSW,207,5.0,0.0,70,0.03,,,-99.99,,2013-01-24 21:23:00,
2013-01-24 16:33:00,15.0,7.0,30.53,SSW,210,3.0,0.0,71,0.03,,,-99.99,,2013-01-24 21:33:00,
2013-01-24 16:43:00,15.0,7.0,30.53,SSW,210,3.0,0.0,71,0.03,,,-99.99,,2013-01-24 21:43:00,
2013-01-24 16:52:00,15.0,7.0,30.53,SSW,198,0.0,0.0,71,0.03,,,-99.99,,2013-01-24 21:52:00,
2013-01-24 17:03:00,15.0,7.0,30.53,SSW,204,5.0,0.0,71,0.03,,,-99.99,,2013-01-24 22:03:00,
2013-01-24 17:12:00,15.0,7.0,30.53,SSW,204,5.0,0.0,71,0.03,,,-99.99,,2013-01-24 22:12:00,
2013-01-24 17:22:00,14.0,7.0,30.53,SSW,203,0.0,0.0,73,0.03,,,-99.99,,2013-01-24 22:22:00,
2013-01-24 17:33:00,14.0,7.0,30.53,SSW,203,0.0,0.0,74,0.03,,,-99.99,,2013-01-24 22:33:00,
2013-01-24 17:42:00,14.0,7.0,30.53,SSW,203,0.0,0.0,74,0.03,,,-99.99,,2013-01-24 22:42:00,
2013-01-24 17:53:00,14.0,7.0,30.54,SSW,203,0.0,0.0,74,0.03,,,-99.99,,2013-01-24 22:53:00,
2013-01-24 18:03:00,13.0,6.0,30.54,SSW,203,0.0,0.0,74,0.03,,,-99.99,,2013-01-24 23:03:00,
2013-01-24 18:12:00,13.0,6.0,30.54,SSW,203,0.0,0.0,74,0.03,,,-99.99,,2013-01-24 23:12:00,
2013-01-24 18:22:00,13.0,7.0,30.54,SSW,203,0.0,0.0,77,0.03,,,-99.99,,2013-01-24 23:22:00,
2013-01-24 18:32:00,12.0,7.0,30.54,SSW,203,0.0,0.0,79,0.03,,,-99.99,,2013-01-24 23:32:00,
2013-01-24 18:42:00,12.0,7.0,30.54,SSW,203,0.0,0.0,79,0.03,,,-99.99,,2013-01-24 23:42:00,
2013-01-24 18:52:00,12.0,7.0,30.54,SSW,203,0.0,0.0,79,0.03,,,-99.99,,2013-01-24 23:52:00,
2013-01-24 19:02:00,10.0,6.0,30.53,SSW,203,0.0,0.0,82,0.03,,,-99.99,,2013-01-25 00:02:00,
2013-01-24 19:12:00,10.0,6.0,30.53,SSW,203,0.0,0.0,82,0.03,,,-99.99,,2013-01-25 00:12:00,
2013-01-24 19:22:00,9.0,5.0,30.52,SSW,203,0.0,0.0,85,0.03,,,-99.99,,2013-01-25 00:22:00,
2013-01-24 19:32:00,8.0,5.0,30.52,SSW,203,0.0,0.0,87,0.03,,,-99.99,,2013-01-25 00:32:00,
2013-01-24 19:42:00,8.0,5.0,30.52,SSW,203,0.0,0.0,87,0.03,,,-99.99,,2013-01-25 00:42:00,
2013-01-24 19:53:00,9.0,6.0,30.52,SSW,203,0.0,0.0,88,0.03,,,-99.99,,2013-01-25 00:53:00,
2013-01-24 20:02:00,9.0,6.0,30.51,SSW,203,0.0,0.0,88,0.03,,,-99.99,,2013-01-25 01:02:00,
2013-01-24 20:12:00,9.0,6.0,30.51,SSW,203,0.0,0.0,88,0.03,,,-99.99,,2013-01-25 01:12:00,
2013-01-24 20:22:00,8.0,6.0,30.50,SSW,203,0.0,0.0,90,0.03,,,-99.99,,2013-01-25 01:22:00,
2013-01-24 20:32:00,9.0,7.0,30.49,SSW,203,0.0,0.0,91,0.03,,,-99.99,,2013-01-25 01:32:00,
2013-01-24 20:42:00,9.0,7.0,30.49,SSW,203,0.0,0.0,91,0.03,,,-99.99,,2013-01-25 01:42:00,
2013-01-24 20:52:00,9.0,7.0,30.50,SSW,203,0.0,0.0,91,0.03,,,-99.99,,2013-01-25 01:52:00,
2013-01-24 21:02:00,10.0,8.0,30.49,SSW,203,0.0,0.0,91,0.03,,,-99.99,,2013-01-25 02:02:00,
2013-01-24 21:12:00,10.0,8.0,30.49,SSW,203,0.0,0.0,91,0.03,,,-99.99,,2013-01-25 02:12:00,
2013-01-24 21:22:00,10.0,8.0,30.48,SSW,203,0.0,0.0,91,0.03,,,-99.99,,2013-01-25 02:22:00,
2013-01-24 21:32:00,11.0,9.0,30.47,SSW,203,0.0,0.0,91,0.03,,,-99.99,,2013-01-25 02:32:00,
2013-01-24 21:42:00,11.0,9.0,30.47,SSW,203,0.0,0.0,91,0.03,,,-99.99,,2013-01-25 02:42:00,
2013-01-24 21:53:00,11.0,9.0,30.47,SSW,203,0.0,0.0,91,0.03,,,-99.99,,2013-01-25 02:53:00,
2013-01-24 22:02:00,11.0,9.0,30.47,SSW,203,0.0,0.0,90,0.03,,,-99.99,,2013-01-25 03:02:00,
2013-01-24 22:12:00,11.0,9.0,30.46,SSW,203,0.0,0.0,91,0.03,,,-99.99,,2013-01-25 03:12:00,
2013-01-24 22:22:00,11.0,9.0,30.46,SSW,203,0.0,0.0,91,0.03,,,-99.99,,2013-01-25 03:22:00,
2013-01-24 22:33:00,11.0,9.0,30.46,SSW,203,0.0,0.0,91,0.03,,,-99.99,,2013-01-25 03:33:00,
2013-01-24 22:42:00,11.0,9.0,30.46,SSW,203,0.0,0.0,91,0.03,,,-99.99,,2013-01-25 03:42:00,
2013-01-24 22:53:00,11.0,9.0,30.47,SSW,203,0.0,0.0,91,0.03,,,-99.99,,2013-01-25 03:53:00,
2013-01-24 23:02:00,12.0,10.0,30.46,SSW,203,0.0,0.0,91,0.03,,,-99.99,,2013-01-25 04:02:00,
2013-01-24 23:12:00,12.0,10.0,30.46,SSW,203,0.0,0.0,91,0.03,,,-99.99,,2013-01-25 04:12:00,
2013-01-24 23:22:00,12.0,10.0,30.46,SSW,203,0.0,0.0,91,0.03,,,-99.99,,2013-01-25 04:22:00,
2013-01-24 23:32:00,12.0,10.0,30.46,South,172,6.0,0.0,91,0.03,,,-99.99,,2013-01-25 04:32:00,
2013-01-24 23:42:00,12.0,10.0,30.46,South,172,6.0,0.0,91,0.03,,,-99.99,,2013-01-25 04:42:00,
2013-01-24 23:52:00,12.0,10.0,30.44,SSE,160,0.0,0.0,91,0.03,,,-99.99,,2013-01-25 04:52:00,